RJBM(METAR)
04/24 20:00
METAR RJBM 241100Z VRB02KT 9999 FEW020 SCT030 BKN120 18/16 Q1006
RETS RMK 2CU020 3CU030 7AC120 A2971=
戻る
トップページへ戻る
IMOC Co,.Ltd.